Time;durP1;ratioP1;P1;durP2;ratioP2;P2;SDS_P1;SDS_P2;PMS_P1;PMS_P2;Temp;Humidity;BMP_temperature;BMP_pressure;BME280_temperature;BME280_humidity;BME280_pressure;Samples;Min_cycle;Max_cycle;Signal;HPM_P1;HPM_P2
2021/12/10 00:02:02;;;;;;;25.13;12.38;;;;;;;-0.35;100.00;96985.59;10437400;28;20049;-65
2021/12/10 00:07:12;;;;;;;24.90;12.95;;;;;;;-0.35;100.00;96990.00;10421649;28;20412;-65
2021/12/10 00:12:21;;;;;;;24.30;12.75;;;;;;;-0.32;100.00;96985.34;10421150;28;20068;-67
2021/12/10 00:17:25;;;;;;;23.40;11.70;;;;;;;-0.29;100.00;96972.81;10423324;28;20045;-65
2021/12/10 00:22:37;;;;;;;23.20;11.93;;;;;;;-0.26;100.00;96969.88;10421902;28;20127;-67
2021/12/10 00:27:43;;;;;;;27.77;13.27;;;;;;;-0.23;100.00;96972.28;10420123;28;20060;-64
2021/12/10 00:32:58;;;;;;;22.75;12.65;;;;;;;-0.19;100.00;96963.13;10420419;28;20045;-65
2021/12/10 00:38:01;;;;;;;22.02;12.55;;;;;;;-0.17;100.00;96955.88;10421181;28;20063;-65
2021/12/10 00:43:06;;;;;;;21.63;11.38;;;;;;;-0.14;100.00;96945.03;10419326;28;20045;-64
2021/12/10 00:48:10;;;;;;;22.48;11.98;;;;;;;-0.12;100.00;96936.97;10420900;28;20124;-66
2021/12/10 00:53:13;;;;;;;21.23;11.30;;;;;;;-0.10;100.00;96930.56;10421272;28;20048;-65
2021/12/10 00:58:18;;;;;;;19.80;9.65;;;;;;;-0.08;100.00;96931.28;10421079;28;20892;-64
2021/12/10 01:03:24;;;;;;;17.52;10.18;;;;;;;-0.05;100.00;96923.06;10418567;28;20075;-65
2021/12/10 01:08:28;;;;;;;20.48;9.93;;;;;;;-0.02;100.00;96922.81;10421101;28;20172;-65
2021/12/10 01:13:35;;;;;;;22.20;9.98;;;;;;;0.01;100.00;96920.88;10418322;28;20045;-65
2021/12/10 01:24:14;;;;;;;16.67;9.15;;;;;;;0.06;100.00;96908.09;10410431;28;20057;-65
2021/12/10 01:29:21;;;;;;;18.35;9.23;;;;;;;0.06;100.00;96894.84;10419877;28;20048;-65
2021/12/10 01:34:25;;;;;;;23.30;9.13;;;;;;;0.08;100.00;96895.53;10419042;28;20047;-68
2021/12/10 01:39:41;;;;;;;17.80;9.95;;;;;;;0.12;100.00;96883.72;10420236;28;20045;-68
2021/12/10 01:44:51;;;;;;;19.60;10.20;;;;;;;0.14;100.00;96877.31;10418515;28;20049;-66
2021/12/10 01:49:54;;;;;;;24.63;11.00;;;;;;;0.18;100.00;96864.63;10418354;28;20064;-66
2021/12/10 01:55:01;;;;;;;24.42;11.60;;;;;;;0.21;100.00;96869.66;10421638;28;20071;-68
2021/12/10 02:00:09;;;;;;;24.63;11.45;;;;;;;0.24;100.00;96857.94;10427528;28;20075;-67
2021/12/10 02:05:13;;;;;;;18.50;11.02;;;;;;;0.28;100.00;96860.22;10427440;28;20057;-66
2021/12/10 02:10:21;;;;;;;24.98;11.50;;;;;;;0.33;100.00;96851.00;10426205;28;21221;-66
2021/12/10 02:15:28;;;;;;;22.50;11.30;;;;;;;0.34;100.00;96840.31;10439862;28;20053;-66
2021/12/10 02:20:35;;;;;;;19.92;10.52;;;;;;;0.36;100.00;96821.59;10426213;28;20047;-66
2021/12/10 02:25:43;;;;;;;22.60;11.23;;;;;;;0.38;100.00;96812.53;10427719;28;20232;-65
2021/12/10 02:30:47;;;;;;;20.40;11.15;;;;;;;0.39;100.00;96813.41;10428089;28;20615;-67
2021/12/10 02:35:50;;;;;;;19.85;11.23;;;;;;;0.41;100.00;96808.81;10423827;28;20506;-66
2021/12/10 02:40:56;;;;;;;23.20;11.75;;;;;;;0.39;100.00;96787.72;10426395;28;20053;-66
2021/12/10 02:46:00;;;;;;;20.88;12.15;;;;;;;0.40;100.00;96783.28;10423875;28;20041;-68
2021/12/10 02:51:07;;;;;;;27.77;12.82;;;;;;;0.43;100.00;96777.69;10425606;28;20580;-66
2021/12/10 02:56:13;;;;;;;23.33;12.75;;;;;;;0.44;100.00;96777.56;10424770;28;20048;-66
2021/12/10 03:01:20;;;;;;;22.90;12.15;;;;;;;0.47;100.00;96779.09;10424473;28;20037;-66
2021/12/10 03:06:26;;;;;;;29.73;13.48;;;;;;;0.49;100.00;96774.50;10425925;28;20059;-69
2021/12/10 03:11:34;;;;;;;22.40;12.27;;;;;;;0.48;100.00;96754.28;10426099;28;20139;-68
2021/12/10 03:16:38;;;;;;;23.48;12.55;;;;;;;0.48;100.00;96745.47;10423122;28;20045;-66
2021/12/10 03:21:44;;;;;;;21.00;12.23;;;;;;;0.48;100.00;96733.09;10423597;28;20417;-66
2021/12/10 03:26:51;;;;;;;22.92;13.02;;;;;;;0.51;100.00;96730.16;10415909;28;20048;-68
2021/12/10 03:31:57;;;;;;;25.27;12.77;;;;;;;0.54;100.00;96726.38;10426831;28;20071;-66
2021/12/10 03:37:01;;;;;;;23.17;13.70;;;;;;;0.55;100.00;96728.06;10429013;28;20121;-66
2021/12/10 03:42:07;;;;;;;28.45;13.98;;;;;;;0.55;100.00;96726.22;10426803;28;20057;-68
2021/12/10 03:47:11;;;;;;;28.08;13.55;;;;;;;0.57;100.00;96718.16;10426946;28;20053;-66
2021/12/10 03:52:15;;;;;;;23.42;13.57;;;;;;;0.59;100.00;96716.19;10423167;28;20040;-66
2021/12/10 03:57:22;;;;;;;26.60;13.48;;;;;;;0.59;100.00;96711.75;10430186;28;20501;-66
2021/12/10 04:02:26;;;;;;;25.67;12.77;;;;;;;0.57;100.00;96705.75;10424325;28;20055;-66
2021/12/10 04:07:29;;;;;;;24.15;14.88;;;;;;;0.55;100.00;96710.34;10423997;28;20112;-66
2021/12/10 04:12:34;;;;;;;28.88;14.32;;;;;;;0.55;100.00;96702.38;10423877;28;20387;-67
2021/12/10 04:17:38;;;;;;;21.40;12.98;;;;;;;0.56;100.00;96706.72;10422409;28;20055;-66
2021/12/10 04:23:36;;;;;;;26.02;14.38;;;;;;;0.59;100.00;96700.28;10420657;28;20107;-66
2021/12/10 04:28:41;;;;;;;23.05;13.48;;;;;;;0.60;100.00;96700.16;10426064;28;20071;-66
2021/12/10 04:33:44;;;;;;;24.42;13.60;;;;;;;0.60;100.00;96694.88;10424005;28;20048;-66
2021/12/10 04:38:49;;;;;;;26.67;14.05;;;;;;;0.60;100.00;96688.72;10428026;28;20041;-66
2021/12/10 04:43:54;;;;;;;27.05;14.20;;;;;;;0.59;100.00;96685.25;10452361;28;20020;-65
2021/12/10 04:49:01;;;;;;;26.50;13.65;;;;;;;0.60;100.00;96683.41;10464950;28;20125;-67
2021/12/10 04:54:05;;;;;;;27.30;13.90;;;;;;;0.64;100.00;96684.00;10453811;28;21088;-66
2021/12/10 04:59:13;;;;;;;21.95;13.55;;;;;;;0.64;100.00;96673.38;10430014;28;20425;-66
2021/12/10 05:04:17;;;;;;;23.27;12.82;;;;;;;0.64;100.00;96670.75;10441357;22;20516;-56
2021/12/10 05:09:22;;;;;;;22.23;13.05;;;;;;;0.66;100.00;96658.16;10421076;28;20063;-54
2021/12/10 05:14:27;;;;;;;23.17;12.85;;;;;;;0.65;100.00;96654.69;10424774;28;20428;-55
2021/12/10 05:19:32;;;;;;;23.30;12.70;;;;;;;0.65;100.00;96648.56;10424904;28;20409;-54
2021/12/10 05:24:36;;;;;;;26.20;12.93;;;;;;;0.57;100.00;96647.44;10424380;28;20144;-56
2021/12/10 05:29:40;;;;;;;23.52;14.55;;;;;;;0.53;100.00;96648.69;10437327;28;20394;-56
2021/12/10 05:34:44;;;;;;;26.83;14.57;;;;;;;0.40;100.00;96645.53;10423761;28;20045;-59
2021/12/10 05:39:47;;;;;;;26.58;14.75;;;;;;;0.34;100.00;96633.69;10424613;28;20041;-58
2021/12/10 05:44:51;;;;;;;24.70;13.23;;;;;;;0.26;100.00;96628.25;10423589;28;20045;-60
2021/12/10 05:49:54;;;;;;;27.35;14.75;;;;;;;0.19;100.00;96622.66;10425228;28;20084;-57
2021/12/10 05:54:57;;;;;;;23.08;14.57;;;;;;;0.13;100.00;96624.06;10422806;28;20052;-57
2021/12/10 06:00:02;;;;;;;21.92;13.90;;;;;;;0.08;100.00;96622.81;10422424;28;20051;-58
2021/12/10 06:05:12;;;;;;;23.20;14.10;;;;;;;-0.02;100.00;96617.53;10421594;28;20075;-57
2021/12/10 06:10:17;;;;;;;26.83;13.77;;;;;;;-0.08;100.00;96604.84;10423485;28;20045;-56
2021/12/10 06:15:23;;;;;;;23.27;14.13;;;;;;;-0.13;100.00;96597.34;10423365;28;20057;-57
2021/12/10 06:20:31;;;;;;;32.05;15.52;;;;;;;-0.17;100.00;96603.88;10424891;28;20057;-56
2021/12/10 06:25:34;;;;;;;31.05;16.73;;;;;;;-0.18;100.00;96605.69;10423298;28;20045;-58
2021/12/10 06:30:42;;;;;;;29.75;16.75;;;;;;;-0.15;100.00;96607.22;10422799;28;20049;-59
2021/12/10 06:35:47;;;;;;;31.90;17.67;;;;;;;-0.12;100.00;96598.19;10423078;28;20613;-57
2021/12/10 06:40:52;;;;;;;27.90;16.27;;;;;;;-0.09;100.00;96598.75;10426488;28;20045;-55
2021/12/10 06:45:56;;;;;;;30.45;16.40;;;;;;;-0.05;100.00;96591.34;10430392;28;20127;-56
2021/12/10 06:51:02;;;;;;;29.67;15.93;;;;;;;-0.04;100.00;96596.50;10430884;28;20283;-57
2021/12/10 06:56:06;;;;;;;22.73;15.02;;;;;;;-0.04;100.00;96591.19;10431142;28;20045;-56
2021/12/10 07:01:17;;;;;;;22.38;13.88;;;;;;;-0.04;100.00;96588.56;10444245;28;20635;-58
2021/12/10 07:06:22;;;;;;;24.40;15.20;;;;;;;-0.05;100.00;96594.81;10422708;28;20512;-53
2021/12/10 07:11:25;;;;;;;24.38;15.65;;;;;;;-0.02;100.00;96589.25;10388971;28;20053;-59
2021/12/10 07:16:31;;;;;;;26.98;16.35;;;;;;;0.01;100.00;96580.19;10386682;28;20421;-55
2021/12/10 07:21:35;;;;;;;30.13;16.17;;;;;;;0.05;100.00;96573.63;10387858;28;20046;-56
2021/12/10 07:26:39;;;;;;;24.42;15.07;;;;;;;0.07;100.00;96568.19;10387717;28;20604;-57
2021/12/10 07:31:45;;;;;;;30.52;17.60;;;;;;;0.09;100.00;96571.53;10389383;28;20042;-62
2021/12/10 07:36:48;;;;;;;29.77;17.33;;;;;;;0.10;100.00;96562.63;10385109;28;20069;-57
2021/12/10 07:41:51;;;;;;;28.33;18.08;;;;;;;0.13;100.00;96555.22;10387660;28;20052;-55
2021/12/10 07:46:57;;;;;;;28.50;18.95;;;;;;;0.15;100.00;96550.63;10385740;28;21000;-57
2021/12/10 07:52:01;;;;;;;29.10;17.15;;;;;;;0.21;100.00;96538.63;10387078;28;20045;-56
2021/12/10 07:57:04;;;;;;;25.25;16.02;;;;;;;0.26;100.00;96547.00;10385901;28;20056;-58
2021/12/10 08:02:09;;;;;;;24.27;15.77;;;;;;;0.32;100.00;96534.16;10384144;28;20413;-57
2021/12/10 08:07:13;;;;;;;21.85;14.98;;;;;;;0.37;100.00;96523.97;10383518;28;20065;-56
2021/12/10 08:12:16;;;;;;;24.80;16.02;;;;;;;0.42;100.00;96511.97;10386494;28;20067;-57
2021/12/10 08:17:21;;;;;;;28.05;15.25;;;;;;;0.45;100.00;96505.53;10387563;28;20048;-61
2021/12/10 08:22:24;;;;;;;23.38;15.57;;;;;;;0.53;100.00;96495.03;10385317;28;20052;-56
2021/12/10 08:27:28;;;;;;;25.35;16.20;;;;;;;0.65;100.00;96494.88;10384651;28;20103;-57
2021/12/10 08:32:33;;;;;;;25.40;15.25;;;;;;;0.71;100.00;96497.72;10401398;28;20045;-56
2021/12/10 08:37:37;;;;;;;24.23;15.57;;;;;;;0.80;100.00;96481.94;10385126;28;20174;-58
2021/12/10 08:42:40;;;;;;;21.23;14.48;;;;;;;0.88;100.00;96480.19;10382823;28;20056;-57
2021/12/10 08:47:44;;;;;;;20.13;14.40;;;;;;;0.97;100.00;96470.53;10384453;28;20049;-54
2021/12/10 08:52:48;;;;;;;22.80;14.57;;;;;;;1.05;100.00;96464.47;10385866;28;20053;-55
2021/12/10 08:57:51;;;;;;;20.80;13.70;;;;;;;1.13;100.00;96450.47;10384590;28;20087;-55
2021/12/10 09:02:57;;;;;;;21.00;14.15;;;;;;;1.21;100.00;96448.75;10380652;28;20046;-59
2021/12/10 09:08:00;;;;;;;22.92;14.48;;;;;;;1.31;100.00;96448.66;10381226;28;20049;-57
2021/12/10 09:13:09;;;;;;;20.20;13.02;;;;;;;1.41;100.00;96443.28;10378422;28;20057;-57
2021/12/10 09:18:14;;;;;;;19.33;13.57;;;;;;;1.51;100.00;96436.06;10382993;28;20132;-56
2021/12/10 09:23:21;;;;;;;15.18;11.38;;;;;;;1.60;100.00;96442.28;10383522;28;20041;-55
2021/12/10 09:28:29;;;;;;;18.33;11.50;;;;;;;1.77;100.00;96434.41;10384324;28;20052;-57
2021/12/10 09:33:34;;;;;;;14.95;11.35;;;;;;;1.92;100.00;96426.75;10383002;28;20038;-56
2021/12/10 09:38:38;;;;;;;14.40;10.27;;;;;;;2.08;100.00;96426.81;10383248;28;20400;-53
2021/12/10 09:43:42;;;;;;;12.15;9.15;;;;;;;2.21;100.00;96413.13;10381597;28;20059;-57
2021/12/10 09:48:47;;;;;;;15.23;10.55;;;;;;;2.40;100.00;96413.88;10383445;28;20045;-58
2021/12/10 09:53:53;;;;;;;12.35;8.55;;;;;;;2.53;100.00;96408.13;10382693;28;20045;-55
2021/12/10 09:58:58;;;;;;;8.75;6.90;;;;;;;2.66;100.00;96400.50;10382276;28;20054;-56
2021/12/10 10:04:05;;;;;;;9.27;7.03;;;;;;;2.83;100.00;96392.56;10376326;28;20061;-59
2021/12/10 10:09:11;;;;;;;7.97;5.97;;;;;;;2.83;100.00;96373.97;10382636;28;20496;-56
2021/12/10 10:14:21;;;;;;;7.25;5.32;;;;;;;2.84;100.00;96376.44;10375686;28;20708;-61
2021/12/10 10:19:27;;;;;;;7.93;5.50;;;;;;;2.86;100.00;96358.50;10388226;28;20102;-56
2021/12/10 10:24:31;;;;;;;6.13;4.50;;;;;;;2.86;100.00;96353.19;10390361;28;20042;-57
2021/12/10 10:29:37;;;;;;;6.97;5.00;;;;;;;2.88;100.00;96350.38;10389885;28;20049;-53
2021/12/10 10:34:47;;;;;;;7.43;4.65;;;;;;;2.90;100.00;96346.56;10391200;28;20481;-56
2021/12/10 10:39:51;;;;;;;8.13;4.45;;;;;;;3.00;100.00;96329.59;10390237;28;20061;-56
2021/12/10 10:44:56;;;;;;;7.68;4.53;;;;;;;3.00;100.00;96327.75;10387821;28;20053;-55
2021/12/10 10:50:11;;;;;;;7.45;4.20;;;;;;;3.04;100.00;96314.97;10388270;28;20601;-57
2021/12/10 10:55:21;;;;;;;9.00;3.72;;;;;;;3.00;100.00;96314.47;10383628;28;20061;-52
2021/12/10 11:00:37;;;;;;;7.25;4.10;;;;;;;3.02;100.00;96314.31;10388647;28;20504;-54
2021/12/10 11:05:55;;;;;;;7.00;3.83;;;;;;;3.01;100.00;96302.81;10407071;22;20081;-65
2021/12/10 11:11:08;;;;;;;9.20;3.92;;;;;;;2.93;100.00;96300.19;10392523;28;20065;-70
2021/12/10 11:16:15;;;;;;;7.25;4.03;;;;;;;2.89;100.00;96293.50;10388293;28;20052;-68
2021/12/10 11:21:37;;;;;;;5.30;4.10;;;;;;;2.95;100.00;96298.19;10391181;28;20053;-66
2021/12/10 11:26:51;;;;;;;9.10;4.75;;;;;;;2.95;100.00;96292.88;10392546;28;20045;-66
2021/12/10 11:31:58;;;;;;;6.43;4.38;;;;;;;2.96;100.00;96301.66;10390523;28;20049;-68
2021/12/10 11:37:02;;;;;;;7.53;4.40;;;;;;;2.94;100.00;96307.16;10395480;28;20097;-66
2021/12/10 11:42:34;;;;;;;9.20;4.38;;;;;;;2.97;100.00;96296.19;10394099;28;20041;-65
2021/12/10 11:47:43;;;;;;;6.40;4.15;;;;;;;3.05;100.00;96293.53;10389602;28;20046;-66
2021/12/10 11:53:00;;;;;;;5.38;3.78;;;;;;;3.11;100.00;96301.84;10385857;28;20053;-67
2021/12/10 11:58:05;;;;;;;5.57;3.70;;;;;;;3.07;100.00;96302.19;10386420;28;20061;-66
2021/12/10 12:03:09;;;;;;;6.10;4.07;;;;;;;3.07;100.00;96306.66;10386049;28;20049;-65
2021/12/10 12:08:16;;;;;;;6.90;4.20;;;;;;;2.96;100.00;96310.50;10386336;28;20668;-66
2021/12/10 12:13:25;;;;;;;6.78;4.20;;;;;;;2.92;100.00;96320.63;10385896;28;20045;-66
2021/12/10 12:18:31;;;;;;;8.07;4.65;;;;;;;2.98;100.00;96313.81;10384186;28;20046;-68
2021/12/10 12:29:06;;;;;;;7.63;4.55;;;;;;;3.03;100.00;96306.16;10383027;28;20422;-66
2021/12/10 12:34:18;;;;;;;6.10;4.00;;;;;;;3.08;100.00;96308.31;10403735;28;20045;-65
2021/12/10 12:39:31;;;;;;;8.45;5.05;;;;;;;3.12;100.00;96308.84;10385027;28;20042;-66
2021/12/10 12:44:36;;;;;;;8.65;4.43;;;;;;;3.27;100.00;96312.47;10386827;28;20528;-66
2021/12/10 12:50:05;;;;;;;6.57;4.10;;;;;;;3.36;100.00;96311.47;10385580;28;20057;-66
2021/12/10 12:55:35;;;;;;;6.15;4.13;;;;;;;3.24;100.00;96302.16;10423024;28;20040;-69
2021/12/10 13:00:45;;;;;;;7.47;4.32;;;;;;;3.14;100.00;96304.16;10433433;28;20049;-68
2021/12/10 13:05:54;;;;;;;8.50;4.65;;;;;;;3.07;100.00;96301.34;10430360;28;20105;-65
2021/12/10 13:11:23;;;;;;;6.05;4.57;;;;;;;2.99;100.00;96302.19;10390998;28;20674;-66
2021/12/10 13:16:39;;;;;;;11.77;5.10;;;;;;;2.90;100.00;96297.84;10378866;28;20041;-66
2021/12/10 13:21:44;;;;;;;9.27;5.03;;;;;;;2.83;100.00;96307.50;10379141;28;20068;-65
2021/12/10 13:26:49;;;;;;;10.30;5.25;;;;;;;2.76;100.00;96316.09;10381553;28;20053;-69
2021/12/10 13:31:52;;;;;;;8.77;5.40;;;;;;;2.68;100.00;96326.72;10378185;28;20045;-64
2021/12/10 13:36:57;;;;;;;12.40;5.45;;;;;;;2.75;100.00;96329.56;10369399;28;20053;-67
2021/12/10 13:42:03;;;;;;;9.77;5.53;;;;;;;2.78;100.00;96329.25;10378620;28;20226;-69
2021/12/10 13:47:09;;;;;;;9.73;5.28;;;;;;;2.78;100.00;96332.72;10379070;28;20493;-65
2021/12/10 13:52:13;;;;;;;10.95;5.22;;;;;;;2.83;100.00;96336.75;10375979;28;20519;-65
2021/12/10 13:57:18;;;;;;;9.55;5.07;;;;;;;3.02;100.00;96336.41;10374333;28;20052;-66
2021/12/10 14:02:33;;;;;;;8.73;4.90;;;;;;;3.13;100.00;96331.75;10375846;28;20494;-67
2021/12/10 14:07:50;;;;;;;7.20;4.55;;;;;;;3.02;100.00;96323.13;10379073;28;20529;-66
2021/12/10 14:12:56;;;;;;;6.63;4.60;;;;;;;2.99;100.00;96319.97;10378530;28;20150;-67
2021/12/10 14:18:04;;;;;;;7.93;4.30;;;;;;;2.98;100.00;96335.09;10375665;28;20053;-68
2021/12/10 14:23:30;;;;;;;7.10;4.10;;;;;;;2.85;100.00;96327.59;10393774;28;20056;-67
2021/12/10 14:29:01;;;;;;;7.20;4.20;;;;;;;2.71;100.00;96323.75;10377576;28;20056;-69
2021/12/10 14:34:25;;;;;;;9.13;4.43;;;;;;;2.65;100.00;96336.88;10374829;28;20378;-67
2021/12/10 14:39:29;;;;;;;7.32;4.50;;;;;;;2.59;100.00;96341.81;10377544;28;20073;-67
2021/12/10 14:45:04;;;;;;;8.93;4.78;;;;;;;2.44;100.00;96340.81;10376112;28;20044;-67
2021/12/10 14:50:10;;;;;;;7.93;4.72;;;;;;;2.29;100.00;96345.91;10376045;28;20828;-66
2021/12/10 14:55:39;;;;;;;10.85;5.95;;;;;;;2.04;100.00;96343.16;10376400;28;20144;-66
2021/12/10 15:01:09;;;;;;;9.73;5.68;;;;;;;1.87;100.00;96346.72;10381779;28;20046;-66
2021/12/10 15:06:32;;;;;;;9.88;5.47;;;;;;;1.63;100.00;96345.56;10398899;28;20095;-66
2021/12/10 15:11:59;;;;;;;9.93;5.68;;;;;;;1.45;100.00;96357.09;10384756;28;20045;-67
2021/12/10 15:17:24;;;;;;;10.88;5.55;;;;;;;1.28;100.00;96368.56;10381759;28;20196;-66
2021/12/10 15:22:34;;;;;;;9.63;6.22;;;;;;;1.08;100.00;96374.84;10381857;28;20041;-66
2021/12/10 15:27:39;;;;;;;11.23;6.13;;;;;;;0.85;100.00;96363.88;10384973;28;20197;-66
2021/12/10 15:32:47;;;;;;;8.85;5.57;;;;;;;0.67;100.00;96373.63;10386093;28;20057;-64
2021/12/10 15:37:54;;;;;;;11.57;5.97;;;;;;;0.50;100.00;96384.06;10383825;28;20047;-65
2021/12/10 15:43:00;;;;;;;11.23;5.68;;;;;;;0.41;100.00;96388.44;10382457;28;20068;-66
2021/12/10 15:48:10;;;;;;;9.93;6.82;;;;;;;0.32;100.00;96393.78;10383286;28;20046;-65
2021/12/10 15:53:17;;;;;;;13.25;6.68;;;;;;;0.26;100.00;96401.34;10380226;28;20045;-65
2021/12/10 15:58:24;;;;;;;13.40;6.78;;;;;;;0.24;100.00;96413.88;10397420;28;20053;-66
2021/12/10 16:03:30;;;;;;;11.55;6.72;;;;;;;0.16;100.00;96413.78;10381205;28;20045;-66
2021/12/10 16:08:36;;;;;;;12.00;6.78;;;;;;;0.08;100.00;96425.09;10389399;28;20561;-65
2021/12/10 16:13:42;;;;;;;14.30;7.57;;;;;;;-0.03;100.00;96420.81;10386079;28;20527;-66
2021/12/10 16:18:52;;;;;;;12.38;7.72;;;;;;;-0.06;100.00;96422.91;10380131;28;20509;-64
2021/12/10 16:24:01;;;;;;;14.60;8.13;;;;;;;-0.17;100.00;96426.56;10379755;28;20053;-65
2021/12/10 16:29:08;;;;;;;15.35;8.15;;;;;;;-0.23;100.00;96421.84;10386622;28;20041;-64
2021/12/10 16:34:16;;;;;;;13.50;7.70;;;;;;;-0.29;100.00;96428.56;10381544;28;20042;-64
2021/12/10 16:39:21;;;;;;;14.60;8.00;;;;;;;-0.38;100.00;96434.69;10384276;28;20089;-67
2021/12/10 16:44:26;;;;;;;15.43;8.38;;;;;;;-0.46;100.00;96432.75;10383709;28;20053;-64
2021/12/10 16:49:33;;;;;;;14.23;8.70;;;;;;;-0.50;100.00;96426.91;10381545;28;20053;-65
2021/12/10 16:55:04;;;;;;;14.02;9.10;;;;;;;-0.52;100.00;96444.75;10377125;28;20148;-64
2021/12/10 17:00:15;;;;;;;15.52;10.48;;;;;;;-0.54;100.00;96446.69;10382276;28;20049;-65
2021/12/10 17:05:23;;;;;;;17.67;11.67;;;;;;;-0.57;100.00;96446.13;10377447;28;20064;-67
2021/12/10 17:10:33;;;;;;;16.00;10.88;;;;;;;-0.61;100.00;96461.44;10382113;28;20162;-66
2021/12/10 17:15:40;;;;;;;20.10;11.32;;;;;;;-0.69;100.00;96467.44;10391879;28;20071;-66
2021/12/10 17:20:48;;;;;;;16.02;10.27;;;;;;;-0.77;100.00;96462.03;10377808;28;20049;-67
2021/12/10 17:25:54;;;;;;;18.65;10.27;;;;;;;-0.85;100.00;96461.84;10375972;28;20045;-63
2021/12/10 17:31:03;;;;;;;18.23;10.93;;;;;;;-0.98;100.00;96467.41;10378111;28;20121;-60
2021/12/10 17:36:12;;;;;;;19.90;10.63;;;;;;;-1.17;100.00;96476.97;10379441;28;20068;-60
2021/12/10 17:41:21;;;;;;;15.55;10.10;;;;;;;-1.17;100.00;96479.59;10384970;28;20049;-62
2021/12/10 17:46:28;;;;;;;22.48;11.15;;;;;;;-1.18;100.00;96477.13;10380841;28;20045;-64
2021/12/10 17:51:36;;;;;;;20.10;11.15;;;;;;;-1.26;100.00;96488.34;10377116;28;20059;-66
2021/12/10 17:56:40;;;;;;;19.65;10.90;;;;;;;-1.28;100.00;96490.28;10377915;28;20046;-64
2021/12/10 18:01:47;;;;;;;16.85;11.02;;;;;;;-1.29;100.00;96509.75;10379096;28;20051;-64
2021/12/10 18:06:56;;;;;;;15.50;10.68;;;;;;;-1.32;100.00;96513.50;10377049;28;20540;-63
2021/12/10 18:12:06;;;;;;;18.13;10.95;;;;;;;-1.34;100.00;96511.97;10377748;28;20041;-62
2021/12/10 18:17:15;;;;;;;22.27;12.38;;;;;;;-1.38;100.00;96524.63;10376433;28;20042;-64
2021/12/10 18:22:23;;;;;;;25.55;14.68;;;;;;;-1.42;100.00;96529.34;10379991;28;20490;-65
2021/12/10 18:27:28;;;;;;;24.52;14.05;;;;;;;-1.42;100.00;96541.69;10388071;28;20446;-62
2021/12/10 18:32:32;;;;;;;19.90;12.65;;;;;;;-1.47;100.00;96549.19;10379748;28;20058;-66
2021/12/10 18:37:39;;;;;;;19.52;11.73;;;;;;;-1.50;100.00;96552.91;10384622;28;20500;-65
2021/12/10 18:42:49;;;;;;;19.48;12.15;;;;;;;-1.48;100.00;96561.53;10386271;28;20054;-61
2021/12/10 18:47:54;;;;;;;19.17;12.23;;;;;;;-1.43;100.00;96569.06;10382795;28;20049;-63
2021/12/10 18:53:02;;;;;;;23.17;12.18;;;;;;;-1.43;100.00;96562.00;10380719;28;20062;-64
2021/12/10 18:58:08;;;;;;;23.98;13.38;;;;;;;-1.41;100.00;96572.41;10382964;28;20045;-63
2021/12/10 19:03:16;;;;;;;19.95;12.05;;;;;;;-1.40;100.00;96582.03;10383111;28;20156;-64
2021/12/10 19:08:28;;;;;;;20.35;12.45;;;;;;;-1.38;100.00;96593.28;10380919;28;20060;-63
2021/12/10 19:13:35;;;;;;;17.83;11.95;;;;;;;-1.40;100.00;96592.59;10383132;28;20128;-62
2021/12/10 19:18:43;;;;;;;20.33;12.32;;;;;;;-1.43;100.00;96598.97;10384554;28;20049;-62
2021/12/10 19:23:51;;;;;;;18.00;11.90;;;;;;;-1.46;100.00;96603.66;10380007;28;20049;-59
2021/12/10 19:28:58;;;;;;;20.38;11.98;;;;;;;-1.50;100.00;96607.53;10384905;28;20061;-69
2021/12/10 19:34:04;;;;;;;23.30;14.00;;;;;;;-1.55;100.00;96616.69;10384195;28;20049;-69
2021/12/10 19:39:13;;;;;;;21.70;14.25;;;;;;;-1.57;100.00;96618.63;10383766;28;20513;-65
2021/12/10 19:44:20;;;;;;;24.23;14.35;;;;;;;-1.57;100.00;96629.19;10381238;28;20038;-62
2021/12/10 19:49:29;;;;;;;26.90;14.82;;;;;;;-1.57;100.00;96638.91;10380826;28;20041;-65
2021/12/10 19:54:38;;;;;;;23.42;14.32;;;;;;;-1.59;100.00;96639.03;10384311;28;20041;-60
2021/12/10 19:59:46;;;;;;;29.85;16.52;;;;;;;-1.60;100.00;96640.03;10395588;28;20137;-65
2021/12/10 20:04:53;;;;;;;28.50;17.33;;;;;;;-1.57;100.00;96645.03;10381828;28;20056;-66
2021/12/10 20:10:06;;;;;;;28.00;17.95;;;;;;;-1.58;100.00;96648.63;10383551;28;20045;-65
2021/12/10 20:15:20;;;;;;;32.03;17.58;;;;;;;-1.60;100.00;96655.00;10383836;28;20053;-62
2021/12/10 20:20:35;;;;;;;30.08;18.75;;;;;;;-1.63;100.00;96657.91;10381879;28;20049;-63
2021/12/10 20:25:46;;;;;;;33.22;19.40;;;;;;;-1.62;100.00;96665.72;10383415;28;20477;-62
2021/12/10 20:30:55;;;;;;;30.70;17.80;;;;;;;-1.64;100.00;96669.41;10378848;28;20044;-61
2021/12/10 20:36:03;;;;;;;27.48;17.70;;;;;;;-1.67;100.00;96670.53;10382053;28;20164;-61
2021/12/10 20:41:13;;;;;;;32.45;19.80;;;;;;;-1.69;100.00;96674.28;10384139;28;20063;-64
2021/12/10 20:46:20;;;;;;;35.70;22.60;;;;;;;-1.73;100.00;96690.34;10384772;28;20037;-59
2021/12/10 20:51:31;;;;;;;42.53;27.02;;;;;;;-1.73;100.00;96693.00;10439274;28;20013;-62
2021/12/10 20:56:40;;;;;;;39.95;25.27;;;;;;;-1.77;100.00;96703.94;10442272;28;20045;-61
2021/12/10 21:01:48;;;;;;;31.98;20.83;;;;;;;-1.86;100.00;96709.03;10381345;28;20071;-64
2021/12/10 21:06:55;;;;;;;35.00;20.88;;;;;;;-1.87;100.00;96717.03;10379022;28;20087;-60
2021/12/10 21:12:04;;;;;;;32.58;20.25;;;;;;;-1.88;100.00;96725.91;10379783;28;21326;-64
2021/12/10 21:17:12;;;;;;;38.35;21.17;;;;;;;-1.88;100.00;96737.34;10378763;28;20046;-60
2021/12/10 21:22:20;;;;;;;34.55;22.10;;;;;;;-1.89;100.00;96748.84;10379273;28;20049;-60
2021/12/10 21:27:31;;;;;;;42.60;22.85;;;;;;;-1.89;100.00;96759.41;10378941;28;20041;-67
2021/12/10 21:32:38;;;;;;;42.05;23.38;;;;;;;-1.89;100.00;96756.78;10375778;28;20053;-62
2021/12/10 21:37:57;;;;;;;39.28;24.52;;;;;;;-1.84;100.00;96766.13;10378114;28;20096;-66
2021/12/10 21:43:07;;;;;;;47.45;25.75;;;;;;;-1.82;100.00;96775.59;10378605;28;20053;-63
2021/12/10 21:48:11;;;;;;;39.15;22.83;;;;;;;-1.82;100.00;96787.97;10380100;28;20052;-59
2021/12/10 21:53:20;;;;;;;43.47;24.38;;;;;;;-1.87;100.00;96799.72;10377059;28;20402;-62
2021/12/10 21:58:32;;;;;;;41.85;24.05;;;;;;;-1.87;100.00;96804.13;10376236;28;20050;-59
2021/12/10 22:03:39;;;;;;;44.20;24.42;;;;;;;-1.84;100.00;96813.63;10375966;28;20049;-60
2021/12/10 22:08:45;;;;;;;39.80;23.65;;;;;;;-1.83;100.00;96812.69;10375271;28;20409;-58
2021/12/10 22:13:55;;;;;;;42.08;23.55;;;;;;;-1.82;100.00;96819.63;10382449;28;20045;-60
2021/12/10 22:19:07;;;;;;;36.35;21.95;;;;;;;-1.83;100.00;96821.41;10387398;28;20682;-67
2021/12/10 22:24:18;;;;;;;34.50;20.30;;;;;;;-1.81;100.00;96832.69;10386640;28;20132;-62
2021/12/10 22:29:26;;;;;;;35.13;19.70;;;;;;;-1.83;100.00;96845.19;10384498;28;20186;-62
2021/12/10 22:34:33;;;;;;;29.00;18.05;;;;;;;-1.84;100.00;96842.66;10385791;28;20540;-61
2021/12/10 22:39:42;;;;;;;30.98;17.35;;;;;;;-1.82;100.00;96860.06;10384777;28;21369;-58
2021/12/10 22:44:49;;;;;;;34.20;16.30;;;;;;;-1.83;100.00;96863.66;10384153;28;20045;-61
2021/12/10 22:49:57;;;;;;;26.70;15.63;;;;;;;-1.83;100.00;96866.28;10383597;28;20053;-62
2021/12/10 22:55:04;;;;;;;27.08;15.55;;;;;;;-1.81;100.00;96866.16;10382803;28;20053;-62
2021/12/10 23:00:17;;;;;;;28.33;15.77;;;;;;;-1.82;100.00;96867.16;10385606;28;20049;-62
2021/12/10 23:05:24;;;;;;;25.55;15.20;;;;;;;-1.81;100.00;96868.81;10384640;28;20064;-59
2021/12/10 23:10:32;;;;;;;32.47;14.73;;;;;;;-1.86;100.00;96877.09;10382787;28;20049;-55
2021/12/10 23:15:41;;;;;;;27.73;15.30;;;;;;;-1.90;100.00;96888.88;10386254;28;20044;-62
2021/12/10 23:21:00;;;;;;;30.13;15.55;;;;;;;-1.93;100.00;96905.75;10380013;28;20140;-58
2021/12/10 23:26:05;;;;;;;26.92;15.27;;;;;;;-1.98;100.00;96912.38;10381547;28;20049;-58
2021/12/10 23:31:10;;;;;;;27.08;15.90;;;;;;;-1.99;100.00;96923.88;10384396;28;20482;-58